createdAt,value
2018-02-07T00:01:17.437Z,44.08
2018-02-07T00:03:44.936Z,44.70
2018-02-07T00:06:12.470Z,45.63
2018-02-07T00:08:39.965Z,44.80
2018-02-07T00:11:07.499Z,44.88
2018-02-07T00:13:35.062Z,43.83
2018-02-07T00:16:02.634Z,41.42
2018-02-07T00:18:30.162Z,41.90
2018-02-07T00:20:57.681Z,40.95
2018-02-07T00:23:25.957Z,43.58
2018-02-07T00:25:54.363Z,44.75
2018-02-07T00:28:21.934Z,42.33
2018-02-07T00:30:49.451Z,42.30
2018-02-07T00:33:16.958Z,42.85
2018-02-07T00:35:44.524Z,43.85
2018-02-07T00:38:12.146Z,46.78
2018-02-07T00:40:40.459Z,40.42
2018-02-07T00:43:08.009Z,41.55
2018-02-07T00:45:35.537Z,40.85
2018-02-07T00:48:03.806Z,41.40
2018-02-07T00:50:32.150Z,41.63
2018-02-07T00:52:59.724Z,41.22
2018-02-07T00:55:27.293Z,44.05
2018-02-07T00:57:55.621Z,43.75
2018-02-07T01:00:23.142Z,49.75
2018-02-07T01:02:50.709Z,49.85
2018-02-07T01:05:19.010Z,48.53
2018-02-07T01:07:46.539Z,42.35
2018-02-07T01:10:14.099Z,40.63
2018-02-07T01:12:42.462Z,43.28
2018-02-07T01:15:10.019Z,39.33
2018-02-07T01:17:37.542Z,43.05
2018-02-07T01:20:05.083Z,43.63
2018-02-07T01:22:32.643Z,40.08
2018-02-07T01:25:00.162Z,47.33
2018-02-07T01:27:27.762Z,41.35
2018-02-07T01:29:55.269Z,42.30
2018-02-07T01:32:22.793Z,42.90
2018-02-07T01:34:50.303Z,44.97
2018-02-07T01:37:17.873Z,40.67
2018-02-07T01:39:46.154Z,40.03
2018-02-07T01:42:13.679Z,41.65
2018-02-07T01:44:41.222Z,41.53
2018-02-07T01:47:08.810Z,45.00
2018-02-07T01:49:36.349Z,45.70
2018-02-07T01:52:03.947Z,45.38
2018-02-07T01:54:31.458Z,36.63
2018-02-07T01:56:58.974Z,41.53
2018-02-07T01:59:26.551Z,38.50
2018-02-07T02:01:54.838Z,35.40
2018-02-07T02:04:22.389Z,41.80
2018-02-07T02:06:50.678Z,37.92
2018-02-07T02:09:18.210Z,36.45
2018-02-07T02:11:45.757Z,44.63
2018-02-07T02:14:14.793Z,41.25
2018-02-07T02:16:42.325Z,39.80
2018-02-07T02:19:10.622Z,41.78
2018-02-07T02:21:38.989Z,42.47
2018-02-07T02:24:07.284Z,45.30
2018-02-07T02:26:34.792Z,38.42
2018-02-07T02:29:02.297Z,43.92
2018-02-07T02:31:29.846Z,44.35
2018-02-07T02:33:58.157Z,44.85
2018-02-07T02:36:37.561Z,39.00
2018-02-07T02:39:06.090Z,42.62
2018-02-07T02:41:33.613Z,41.63
2018-02-07T02:44:01.875Z,39.28
2018-02-07T02:46:30.184Z,41.28
2018-02-07T02:48:57.691Z,40.63
2018-02-07T02:51:25.201Z,39.47
2018-02-07T02:53:52.703Z,41.40
2018-02-07T02:56:20.221Z,46.55
2018-02-07T02:58:47.787Z,44.58
2018-02-07T03:01:15.301Z,40.53
2018-02-07T03:03:42.869Z,50.25
2018-02-07T03:06:10.431Z,47.35
2018-02-07T03:08:38.716Z,47.15
2018-02-07T03:11:06.988Z,43.53
2018-02-07T03:13:35.284Z,45.55
2018-02-07T03:16:02.801Z,50.95
2018-02-07T03:18:30.335Z,44.47
2018-02-07T03:20:57.841Z,48.75
2018-02-07T03:23:26.144Z,45.10
2018-02-07T03:25:53.653Z,43.10
2018-02-07T03:28:27.199Z,43.53
2018-02-07T03:30:55.505Z,44.88
2018-02-07T03:33:23.028Z,42.58
2018-02-07T03:35:50.558Z,40.58
2018-02-07T03:38:18.099Z,44.92
2018-02-07T03:40:45.642Z,47.38
2018-02-07T03:43:13.193Z,45.30
2018-02-07T03:45:40.719Z,45.08
2018-02-07T03:48:09.005Z,49.05
2018-02-07T03:50:36.561Z,45.58
2018-02-07T03:53:04.842Z,50.47
2018-02-07T03:55:32.362Z,50.65
2018-02-07T03:57:59.998Z,46.58
2018-02-07T04:00:27.533Z,52.95
2018-02-07T04:02:55.057Z,45.30
2018-02-07T04:05:22.571Z,49.63
2018-02-07T04:07:50.083Z,48.13
2018-02-07T04:10:17.609Z,50.00
2018-02-07T04:12:45.158Z,47.85
2018-02-07T04:15:12.654Z,45.28
2018-02-07T04:17:40.245Z,52.65
2018-02-07T04:20:07.766Z,51.83
2018-02-07T04:22:35.289Z,43.28
2018-02-07T04:25:02.813Z,45.80
2018-02-07T04:27:31.082Z,46.37
2018-02-07T04:29:58.596Z,51.42
2018-02-07T04:32:26.088Z,47.83
2018-02-07T04:34:53.598Z,51.37
2018-02-07T04:37:21.138Z,48.90
2018-02-07T04:39:48.695Z,50.53
2018-02-07T04:42:16.260Z,45.83
2018-02-07T04:44:44.554Z,42.60
2018-02-07T04:47:12.061Z,45.78
2018-02-07T04:49:39.590Z,50.65
2018-02-07T04:52:07.109Z,47.70
2018-02-07T04:54:35.433Z,50.17
2018-02-07T04:57:02.976Z,48.42
2018-02-07T04:59:30.579Z,50.38
2018-02-07T05:01:58.108Z,46.47
2018-02-07T05:04:25.619Z,45.25
2018-02-07T05:06:53.936Z,52.60
2018-02-07T05:09:21.454Z,50.85
2018-02-07T05:11:49.745Z,48.63
2018-02-07T05:14:18.093Z,48.30
2018-02-07T05:16:45.594Z,50.80
2018-02-07T05:19:13.109Z,56.70
2018-02-07T05:21:40.606Z,53.60
2018-02-07T05:24:08.179Z,48.58
2018-02-07T05:26:35.689Z,54.28
2018-02-07T05:29:03.224Z,58.15
2018-02-07T05:31:30.745Z,49.97
2018-02-07T05:33:58.541Z,52.62
2018-02-07T05:36:26.074Z,48.28
2018-02-07T05:38:53.614Z,48.03
2018-02-07T05:41:21.899Z,49.30
2018-02-07T05:43:50.193Z,54.80
2018-02-07T05:46:17.684Z,57.05
2018-02-07T05:48:45.208Z,54.17
2018-02-07T05:51:12.737Z,54.50
2018-02-07T05:53:41.033Z,52.72
2018-02-07T05:56:08.569Z,52.10
2018-02-07T05:58:36.114Z,53.53
2018-02-07T06:01:03.627Z,56.33
2018-02-07T06:03:31.156Z,55.88
2018-02-07T06:05:59.486Z,58.40
2018-02-07T06:08:27.053Z,55.53
2018-02-07T06:10:54.569Z,61.15
2018-02-07T06:13:22.879Z,60.12
2018-02-07T06:15:50.478Z,52.30
2018-02-07T06:18:18.039Z,55.92
2018-02-07T06:20:45.655Z,57.50
2018-02-07T06:23:13.178Z,60.55
2018-02-07T06:25:41.469Z,53.03
2018-02-07T06:28:09.741Z,60.15
2018-02-07T06:30:38.021Z,58.40
2018-02-07T06:33:06.378Z,57.85
2018-02-07T06:35:33.907Z,58.15
2018-02-07T06:38:01.417Z,63.47
2018-02-07T06:40:29.728Z,53.65
2018-02-07T06:42:57.276Z,58.78
2018-02-07T06:45:24.826Z,56.80
2018-02-07T06:47:52.355Z,59.45
2018-02-07T06:50:19.889Z,61.15
2018-02-07T06:52:47.429Z,58.95
2018-02-07T06:55:14.997Z,56.65
2018-02-07T06:57:42.514Z,58.35
2018-02-07T07:00:10.873Z,63.53
2018-02-07T07:02:38.397Z,57.60
2018-02-07T07:05:05.908Z,58.97
2018-02-07T07:07:34.185Z,62.35
2018-02-07T07:10:02.491Z,61.55
2018-02-07T07:12:29.989Z,62.95
2018-02-07T07:14:57.557Z,57.33
2018-02-07T07:17:25.103Z,57.42
2018-02-07T07:19:52.649Z,60.55
2018-02-07T07:22:20.143Z,63.13
2018-02-07T07:24:47.714Z,61.67
2018-02-07T07:27:16.001Z,60.50
2018-02-07T07:29:44.289Z,60.65
2018-02-07T07:32:11.939Z,64.10
2018-02-07T07:34:39.439Z,59.00
2018-02-07T07:37:06.980Z,59.80
2018-02-07T07:39:34.488Z,62.55
2018-02-07T07:42:02.002Z,60.50
2018-02-07T07:44:29.509Z,63.67
2018-02-07T07:46:57.040Z,55.83
2018-02-07T07:49:24.536Z,58.72
2018-02-07T07:51:52.045Z,59.20
2018-02-07T07:54:19.549Z,57.92
2018-02-07T07:56:47.159Z,61.40
2018-02-07T07:59:14.735Z,61.15
2018-02-07T08:01:42.293Z,58.10
2018-02-07T08:04:09.839Z,53.00
2018-02-07T08:06:38.133Z,58.83
2018-02-07T08:09:05.655Z,57.25
2018-02-07T08:11:33.185Z,56.78
2018-02-07T08:14:00.711Z,64.10
2018-02-07T08:16:28.253Z,57.88
2018-02-07T08:18:55.779Z,52.33
2018-02-07T08:21:24.086Z,53.50
2018-02-07T08:23:51.597Z,57.20
2018-02-07T08:26:19.194Z,54.83
2018-02-07T08:28:46.748Z,56.45
2018-02-07T08:31:15.037Z,56.13
2018-02-07T08:33:42.532Z,52.58
2018-02-07T08:36:10.054Z,60.03
2018-02-07T08:38:37.565Z,57.08
2018-02-07T08:41:05.113Z,53.95
2018-02-07T08:43:32.641Z,59.53
2018-02-07T08:46:00.165Z,54.78
2018-02-07T08:48:28.469Z,64.22
2018-02-07T08:50:55.997Z,57.37
2018-02-07T08:53:24.293Z,57.88
2018-02-07T08:55:51.865Z,55.40
2018-02-07T08:58:19.391Z,48.00
2018-02-07T09:00:46.894Z,53.45
2018-02-07T09:03:14.411Z,56.85
2018-02-07T09:05:41.936Z,49.63
2018-02-07T09:08:09.530Z,53.53
2018-02-07T09:10:37.062Z,49.45
2018-02-07T09:13:04.602Z,54.03
2018-02-07T09:15:32.101Z,52.93
2018-02-07T09:17:59.625Z,54.42
2018-02-07T09:20:27.179Z,51.60
2018-02-07T09:22:54.730Z,55.40
2018-02-07T09:25:22.253Z,51.77
2018-02-07T09:27:49.781Z,48.23
2018-02-07T09:30:17.297Z,53.08
2018-02-07T09:32:44.849Z,57.28
2018-02-07T09:35:12.369Z,55.72
2018-02-07T09:37:39.935Z,49.47
2018-02-07T09:40:07.473Z,55.70
2018-02-07T09:42:35.062Z,56.90
2018-02-07T09:45:02.594Z,63.47
2018-02-07T09:47:30.097Z,50.53
2018-02-07T09:49:58.369Z,51.25
2018-02-07T09:52:25.946Z,55.63
2018-02-07T09:54:54.279Z,60.22
2018-02-07T09:57:21.796Z,53.53
2018-02-07T09:59:49.346Z,51.72
2018-02-07T10:02:16.957Z,60.35
2018-02-07T10:04:44.818Z,59.10
2018-02-07T10:07:12.325Z,62.03
2018-02-07T10:09:40.622Z,64.10
2018-02-07T10:12:08.210Z,61.17
2018-02-07T10:14:35.787Z,64.80
2018-02-07T10:17:03.313Z,63.30
2018-02-07T10:19:30.832Z,63.40
2018-02-07T10:21:58.345Z,59.70
2018-02-07T10:24:25.869Z,71.75
2018-02-07T10:26:54.172Z,69.47
2018-02-07T10:29:21.697Z,70.15
2018-02-07T10:31:49.977Z,69.20
2018-02-07T10:34:18.304Z,71.47
2018-02-07T10:36:45.818Z,66.87
2018-02-07T10:39:14.111Z,64.35
2018-02-07T10:41:41.626Z,59.40
2018-02-07T10:44:09.218Z,63.63
2018-02-07T10:46:36.765Z,66.45
2018-02-07T10:49:05.049Z,60.80
2018-02-07T10:51:33.313Z,64.93
2018-02-07T10:54:01.613Z,67.30
2018-02-07T10:56:29.882Z,62.10
2018-02-07T10:58:58.153Z,61.90
2018-02-07T11:01:25.671Z,58.27
2018-02-07T11:03:53.169Z,53.67
2018-02-07T11:06:21.464Z,56.60
2018-02-07T11:08:49.042Z,57.53
2018-02-07T11:11:16.564Z,55.13
2018-02-07T11:13:44.068Z,59.63
2018-02-07T11:16:11.569Z,57.93
2018-02-07T11:18:39.154Z,61.60
2018-02-07T11:21:07.427Z,58.30
2018-02-07T11:23:35.713Z,54.80
2018-02-07T11:26:04.006Z,61.07
2018-02-07T11:28:31.518Z,57.20
2018-02-07T11:30:59.009Z,56.50
2018-02-07T11:33:27.287Z,53.37
2018-02-07T11:35:54.836Z,55.07
2018-02-07T11:38:23.133Z,59.70
2018-02-07T11:40:50.653Z,58.63
2018-02-07T11:43:18.224Z,57.50
2018-02-07T11:45:45.736Z,57.73
2018-02-07T11:48:13.265Z,52.43
2018-02-07T11:50:41.611Z,59.80
2018-02-07T11:53:09.146Z,59.73
2018-02-07T11:55:36.641Z,56.27
2018-02-07T11:58:04.230Z,56.33
2018-02-07T12:00:31.700Z,60.43
2018-02-07T12:02:59.274Z,59.23
2018-02-07T12:05:26.803Z,59.90
2018-02-07T12:07:55.088Z,58.83
2018-02-07T12:10:22.641Z,60.77
2018-02-07T12:12:50.169Z,54.33
2018-02-07T12:15:17.681Z,58.07
2018-02-07T12:17:45.196Z,56.93
2018-02-07T12:20:12.742Z,54.93
2018-02-07T12:22:40.266Z,56.87
2018-02-07T12:25:07.788Z,53.13
2018-02-07T12:27:36.056Z,56.77
2018-02-07T12:30:03.561Z,55.83
2018-02-07T12:32:31.086Z,61.97
2018-02-07T12:34:59.586Z,59.07
2018-02-07T12:37:27.077Z,64.53
2018-02-07T12:39:54.642Z,61.40
2018-02-07T12:42:22.164Z,61.83
2018-02-07T12:44:49.681Z,60.30
2018-02-07T12:47:17.178Z,62.20
2018-02-07T12:49:44.678Z,63.57
2018-02-07T12:52:12.202Z,64.10
2018-02-07T12:54:39.787Z,58.23
2018-02-07T12:57:07.293Z,60.40
2018-02-07T12:59:35.602Z,69.63
2018-02-07T13:02:03.129Z,61.53
2018-02-07T13:04:30.642Z,54.80
2018-02-07T13:06:58.189Z,61.63
2018-02-07T13:09:25.733Z,58.07
2018-02-07T13:11:53.275Z,56.23
2018-02-07T13:14:21.561Z,47.50
2018-02-07T13:16:49.829Z,58.87
2018-02-07T13:19:18.105Z,61.80
2018-02-07T13:21:46.371Z,63.03
2018-02-07T13:24:14.731Z,65.57
2018-02-07T13:26:42.274Z,64.20
2018-02-07T13:29:10.565Z,55.50
2018-02-07T13:31:38.070Z,59.57
2018-02-07T13:34:05.586Z,62.57
2018-02-07T13:36:33.093Z,70.63
2018-02-07T13:39:00.609Z,63.47
2018-02-07T13:41:28.209Z,62.43
2018-02-07T13:43:55.765Z,67.27
2018-02-07T13:46:23.333Z,58.17
2018-02-07T13:48:50.854Z,64.20
2018-02-07T13:51:18.410Z,65.17
2018-02-07T13:53:45.910Z,60.20
2018-02-07T13:56:13.494Z,58.90
2018-02-07T13:58:41.315Z,55.90
2018-02-07T14:01:08.773Z,59.37
2018-02-07T14:03:36.282Z,53.33
2018-02-07T14:06:03.802Z,56.47
2018-02-07T14:08:32.093Z,57.17
2018-02-07T14:10:59.626Z,56.43
2018-02-07T14:13:27.137Z,52.80
2018-02-07T14:15:54.646Z,54.73
2018-02-07T14:18:22.157Z,51.47
2018-02-07T14:20:49.704Z,53.43
2018-02-07T14:23:17.198Z,51.17
2018-02-07T14:25:44.726Z,50.73
2018-02-07T14:28:12.223Z,55.37
2018-02-07T14:30:39.760Z,47.70
2018-02-07T14:33:07.270Z,49.67
2018-02-07T14:35:35.540Z,52.07
2018-02-07T14:38:03.830Z,51.53
2018-02-07T14:40:31.351Z,49.87
2018-02-07T14:42:58.860Z,51.37
2018-02-07T14:45:26.354Z,48.50
2018-02-07T14:47:53.906Z,54.97
2018-02-07T14:50:21.435Z,45.07
2018-02-07T14:52:48.995Z,48.07
2018-02-07T14:55:16.558Z,80.60
2018-02-07T14:57:44.058Z,50.03
2018-02-07T15:00:11.577Z,47.30
2018-02-07T15:02:39.301Z,50.70
2018-02-07T15:05:07.585Z,44.40
2018-02-07T15:07:35.941Z,46.97
2018-02-07T15:10:03.457Z,50.07
2018-02-07T15:12:30.977Z,52.47
2018-02-07T15:14:59.259Z,45.47
2018-02-07T15:17:26.816Z,48.97
2018-02-07T15:19:54.297Z,49.20
2018-02-07T15:22:22.588Z,42.37
2018-02-07T15:24:50.143Z,43.27
2018-02-07T15:27:17.661Z,41.10
2018-02-07T15:29:45.172Z,43.87
2018-02-07T15:32:12.753Z,49.35
2018-02-07T15:34:40.258Z,45.20
2018-02-07T15:37:08.589Z,44.35
2018-02-07T15:39:36.109Z,48.72
2018-02-07T15:42:03.749Z,43.72
2018-02-07T15:44:31.333Z,40.22
2018-02-07T15:46:59.690Z,44.95
2018-02-07T15:49:27.246Z,37.15
2018-02-07T15:51:54.878Z,42.33
2018-02-07T15:54:23.154Z,38.70
2018-02-07T15:56:50.734Z,40.33
2018-02-07T15:59:18.270Z,39.20
2018-02-07T16:01:46.635Z,42.78
2018-02-07T16:04:14.185Z,42.47
2018-02-07T16:06:41.789Z,38.00
2018-02-07T16:09:09.300Z,40.85
2018-02-07T16:11:37.577Z,42.45
2018-02-07T16:14:05.852Z,40.67
2018-02-07T16:16:34.173Z,34.50
2018-02-07T16:19:01.727Z,38.15
2018-02-07T16:21:29.273Z,39.47
2018-02-07T16:23:56.787Z,39.15
2018-02-07T16:26:25.082Z,44.05
2018-02-07T16:28:52.614Z,36.97
2018-02-07T16:31:20.950Z,38.10
2018-02-07T16:33:48.466Z,42.97
2018-02-07T16:36:16.757Z,42.75
2018-02-07T16:38:45.090Z,40.70
2018-02-07T16:41:13.361Z,47.42
2018-02-07T16:43:41.674Z,45.78
2018-02-07T16:46:09.186Z,54.28
2018-02-07T16:48:36.706Z,50.33
2018-02-07T16:51:04.982Z,41.63
2018-02-07T16:53:32.549Z,42.70
2018-02-07T16:56:00.100Z,43.00
2018-02-07T16:58:28.627Z,45.58
2018-02-07T17:00:56.133Z,43.78
2018-02-07T17:03:24.498Z,49.63
2018-02-07T17:05:52.008Z,48.75
2018-02-07T17:08:19.521Z,47.35
2018-02-07T17:10:47.030Z,43.72
2018-02-07T17:13:14.568Z,42.50
2018-02-07T17:15:42.141Z,42.33
2018-02-07T17:18:09.660Z,40.78
2018-02-07T17:20:37.170Z,46.75
2018-02-07T17:23:04.697Z,44.15
2018-02-07T17:25:32.979Z,53.22
2018-02-07T17:28:01.262Z,41.80
2018-02-07T17:30:29.521Z,47.28
2018-02-07T17:32:57.801Z,45.95
2018-02-07T17:35:26.076Z,47.20
2018-02-07T17:37:54.379Z,42.78
2018-02-07T17:40:21.892Z,48.40
2018-02-07T17:42:49.426Z,46.40
2018-02-07T17:45:16.974Z,52.35
2018-02-07T17:47:44.502Z,45.65
2018-02-07T17:50:12.778Z,45.03
2018-02-07T17:52:41.067Z,44.50
2018-02-07T17:55:08.599Z,51.50
2018-02-07T17:57:36.166Z,52.80
2018-02-07T18:00:04.471Z,53.22
2018-02-07T18:02:32.005Z,48.92
2018-02-07T18:05:00.285Z,50.80
2018-02-07T18:07:28.642Z,49.47
2018-02-07T18:09:56.180Z,47.35
2018-02-07T18:12:23.741Z,49.95
2018-02-07T18:14:51.311Z,47.35
2018-02-07T18:17:18.817Z,48.63
2018-02-07T18:19:47.095Z,45.72
2018-02-07T18:22:15.377Z,51.17
2018-02-07T18:24:42.970Z,50.95
2018-02-07T18:27:10.493Z,55.55
2018-02-07T18:29:38.809Z,57.00
2018-02-07T18:32:06.363Z,51.83
2018-02-07T18:34:33.926Z,47.30
2018-02-07T18:37:01.437Z,51.45
2018-02-07T18:39:29.768Z,51.92
2018-02-07T18:41:57.304Z,53.35
2018-02-07T18:44:24.843Z,49.33
2018-02-07T18:46:53.111Z,48.65
2018-02-07T18:49:24.832Z,51.37
2018-02-07T18:51:52.353Z,50.70
2018-02-07T18:54:19.905Z,51.53
2018-02-07T18:56:47.407Z,47.45
2018-02-07T18:59:14.987Z,52.38
2018-02-07T19:01:42.493Z,50.15
2018-02-07T19:04:09.997Z,46.28
2018-02-07T19:06:37.535Z,50.12
2018-02-07T19:09:05.086Z,44.13
2018-02-07T19:11:32.650Z,41.92
2018-02-07T19:14:00.163Z,41.92
2018-02-07T19:16:28.442Z,45.12
2018-02-07T19:18:57.180Z,44.22
2018-02-07T19:21:24.710Z,50.70
2018-02-07T19:23:52.220Z,46.95
2018-02-07T19:26:19.788Z,42.08
2018-02-07T19:28:47.449Z,44.97
2018-02-07T19:31:14.987Z,45.65
2018-02-07T19:33:42.572Z,41.60
2018-02-07T19:36:10.407Z,40.88
2018-02-07T19:38:38.007Z,51.50
2018-02-07T19:41:05.504Z,50.45
2018-02-07T19:43:33.021Z,47.80
2018-02-07T19:46:00.849Z,45.35
2018-02-07T19:48:28.384Z,46.47
2018-02-07T19:50:55.919Z,47.90
2018-02-07T19:53:24.197Z,45.08
2018-02-07T19:55:51.784Z,47.90
2018-02-07T19:58:19.274Z,43.55
2018-02-07T20:00:47.030Z,47.75
2018-02-07T20:03:14.550Z,49.83
2018-02-07T20:05:42.846Z,49.63
2018-02-07T20:08:10.353Z,46.85
2018-02-07T20:10:37.949Z,41.05
2018-02-07T20:13:05.508Z,44.13
2018-02-07T20:15:33.826Z,49.80
2018-02-07T20:18:01.349Z,47.13
2018-02-07T20:20:29.697Z,41.45
2018-02-07T20:22:57.228Z,45.50
2018-02-07T20:25:24.749Z,53.15
2018-02-07T20:27:52.273Z,43.33
2018-02-07T20:30:19.879Z,45.58
2018-02-07T20:32:47.431Z,43.53
2018-02-07T20:35:15.775Z,39.80
2018-02-07T20:37:43.349Z,43.05
2018-02-07T20:40:10.938Z,41.78
2018-02-07T20:42:38.469Z,45.95
2018-02-07T20:45:05.996Z,42.38
2018-02-07T20:47:33.510Z,48.05
2018-02-07T20:50:01.801Z,43.60
2018-02-07T20:52:29.692Z,41.50
2018-02-07T20:54:57.225Z,42.40
2018-02-07T20:57:24.728Z,35.60
2018-02-07T20:59:52.336Z,51.30
2018-02-07T21:02:20.630Z,50.30
2018-02-07T21:04:48.142Z,60.40
2018-02-07T21:07:15.694Z,44.85
2018-02-07T21:09:43.258Z,48.03
2018-02-07T21:12:10.785Z,44.45
2018-02-07T21:14:38.334Z,40.72
2018-02-07T21:17:05.836Z,39.25
2018-02-07T21:19:33.361Z,45.50
2018-02-07T21:22:00.897Z,42.03
2018-02-07T21:24:28.421Z,42.42
2018-02-07T21:26:55.995Z,43.20
2018-02-07T21:29:23.497Z,74.05
2018-02-07T21:31:51.029Z,50.63
2018-02-07T21:34:18.552Z,45.92
2018-02-07T21:36:46.074Z,44.35
2018-02-07T21:39:13.579Z,53.50
2018-02-07T21:41:41.179Z,48.58
2018-02-07T21:44:08.729Z,48.20
2018-02-07T21:46:37.089Z,51.67
2018-02-07T21:49:04.602Z,46.78
2018-02-07T21:51:32.117Z,59.50
2018-02-07T21:54:00.401Z,48.15
2018-02-07T21:56:28.690Z,48.53
2018-02-07T21:58:56.232Z,52.58
2018-02-07T22:01:24.514Z,51.85
2018-02-07T22:03:52.794Z,48.92
2018-02-07T22:06:20.320Z,50.97
2018-02-07T22:08:47.846Z,53.38
2018-02-07T22:11:15.367Z,53.28
2018-02-07T22:13:43.639Z,58.70
2018-02-07T22:16:11.937Z,62.38
2018-02-07T22:18:39.450Z,79.03
2018-02-07T22:21:06.981Z,83.37
2018-02-07T22:23:34.510Z,61.10
2018-02-07T22:26:02.058Z,52.28
2018-02-07T22:28:30.327Z,49.70
2018-02-07T22:30:57.913Z,52.95
2018-02-07T22:33:25.441Z,51.47
2018-02-07T22:35:52.963Z,49.40
2018-02-07T22:38:20.509Z,51.13
2018-02-07T22:40:48.086Z,50.38
2018-02-07T22:43:15.588Z,51.58
2018-02-07T22:45:43.885Z,49.22
2018-02-07T22:48:11.402Z,46.55
2018-02-07T22:50:38.933Z,45.75
2018-02-07T22:53:06.449Z,47.08
2018-02-07T22:55:33.997Z,49.88
2018-02-07T22:58:02.368Z,50.97
2018-02-07T23:00:29.957Z,45.30
2018-02-07T23:02:58.238Z,47.62
2018-02-07T23:05:26.138Z,56.72
2018-02-07T23:07:53.658Z,50.88
2018-02-07T23:10:21.973Z,45.83
2018-02-07T23:12:49.570Z,48.50
2018-02-07T23:15:17.085Z,51.13
2018-02-07T23:17:44.654Z,49.95
2018-02-07T23:20:12.143Z,46.63
2018-02-07T23:22:39.727Z,48.40
2018-02-07T23:25:07.996Z,48.20
2018-02-07T23:27:35.525Z,45.28
2018-02-07T23:30:03.041Z,48.72
2018-02-07T23:32:30.573Z,51.03
2018-02-07T23:34:58.096Z,49.42
2018-02-07T23:37:25.687Z,55.25
2018-02-07T23:39:53.213Z,49.28
2018-02-07T23:42:20.784Z,56.35
2018-02-07T23:44:48.300Z,49.78
2018-02-07T23:47:15.816Z,50.95
2018-02-07T23:49:43.338Z,49.03
2018-02-07T23:52:10.846Z,44.38
2018-02-07T23:54:38.390Z,54.85
2018-02-07T23:57:05.903Z,52.90
2018-02-07T23:59:33.432Z,51.13
